America — WD15630 — position and weather

sailwx.info

Track history (hours):
 
Tides and Currents Weather Stations Pressure Air Temp Water Temp Dewpoint Dewpoint Depression Visibility Wind Speed Wind Dir Waves Ship Positions

America

Last reported at 2017-Dec-13 02:02 UTC. Time now 2017-Dec-16 13:03 UTC.
Position N 32°03' W 091°03'.

Length 80 m; draft 2.4 m.

Type: Passenger vessel. MMSI: 367710540.

Date/timePositionNaut miles runAvg speedWind from/ knotsBaromVisibWave heightAir tempDewpointWater temp
2017-Dec-13 02:02N 32°03' W 091°03'411.3
2017-Dec-13 01:38N 32°07' W 091°06'1 8.8
2017-Dec-13 01:28N 32°08' W 091°06'510.0
2017-Dec-13 01:00N 32°09' W 091°00'612.4
2017-Dec-13 00:31N 32°15' W 090°59'613.0
2017-Dec-13 00:01N 32°20' W 090°54'1 2.6
2017-Dec-12 23:27N 32°21' W 090°53'0 0.0
2017-Dec-12 23:00N 32°21' W 090°53'0 0.0
2017-Dec-12 22:30N 32°21' W 090°53'0 0.0
2017-Dec-12 22:01N 32°21' W 090°53'0 0.0
2017-Dec-12 21:28N 32°21' W 090°53'0 0.0
2017-Dec-12 21:01N 32°21' W 090°53'0 0.0
2017-Dec-12 20:30N 32°21' W 090°53'0 0.0
2017-Dec-12 20:00N 32°21' W 090°53'0 0.0
2017-Dec-12 19:28N 32°21' W 090°53'0 0.0
2017-Dec-12 18:57N 32°21' W 090°53'0 0.0
2017-Dec-12 18:27N 32°21' W 090°53'0 0.0
2017-Dec-12 18:01N 32°21' W 090°53'0 0.0
2017-Dec-12 17:30N 32°21' W 090°53'0 0.0
2017-Dec-12 16:58N 32°21' W 090°53'0 0.0
2017-Dec-12 16:30N 32°21' W 090°53'0 0.0
2017-Dec-12 16:00N 32°21' W 090°53'0 0.0
2017-Dec-12 15:30N 32°21' W 090°53'0 0.0
2017-Dec-12 15:00N 32°21' W 090°53'0 0.0
2017-Dec-12 14:30N 32°21' W 090°53'0 0.0
2017-Dec-12 13:57N 32°21' W 090°53'0 0.0
2017-Dec-12 13:30N 32°21' W 090°53'0 0.0
2017-Dec-12 13:00N 32°21' W 090°53'2 4.7
2017-Dec-12 12:31N 32°19' W 090°54'2 3.9
2017-Dec-12 12:01N 32°18' W 090°56'3 6.4
2017-Dec-12 11:30N 32°15' W 090°58'3 5.7
2017-Dec-12 11:00N 32°13' W 090°59'3 5.5
2017-Dec-12 10:30N 32°10' W 091°00'3 5.2
2017-Dec-12 10:01N 32°07' W 091°01'3 5.6
2017-Dec-12 09:27N 32°08' W 091°05'2 4.6
2017-Dec-12 08:59N 32°06' W 091°06'4 8.1
2017-Dec-12 08:29N 32°02' W 091°04'7 7.2
2017-Dec-12 07:33N 31°59' W 091°10'0 8.0
2017-Dec-12 07:30N 31°58' W 091°11'  
2017-Dec-04 10:24N 32°21' W 090°53'0 0.0
2017-Dec-04 10:00N 32°21' W 090°53'0 0.0
2017-Dec-04 09:30N 32°21' W 090°53'0 0.0
2017-Dec-04 09:00N 32°21' W 090°53'0 0.0
2017-Dec-04 08:30N 32°21' W 090°53'0 0.0
2017-Dec-04 08:00N 32°21' W 090°53'0 0.0
2017-Dec-04 07:30N 32°21' W 090°53'0 0.0
2017-Dec-04 07:00N 32°21' W 090°53'0 0.0
2017-Dec-04 06:30N 32°21' W 090°53'0 0.0
2017-Dec-04 06:00N 32°21' W 090°53'0 0.0
2017-Dec-04 05:30N 32°21' W 090°53'0 0.0
2017-Dec-04 05:00N 32°21' W 090°53'0 0.0
2017-Dec-04 04:30N 32°21' W 090°53'0 0.0
2017-Dec-04 04:00N 32°21' W 090°53'0 0.0
2017-Dec-04 03:30N 32°21' W 090°53'0 0.0
2017-Dec-04 03:00N 32°21' W 090°53'0 0.0
2017-Dec-04 02:30N 32°21' W 090°53'0 0.0
2017-Dec-04 02:00N 32°21' W 090°53'0 0.0
2017-Dec-04 01:30N 32°21' W 090°53'0 0.0
2017-Dec-04 01:00N 32°21' W 090°53'0 0.0
2017-Dec-04 00:30N 32°21' W 090°53'0 0.0
2017-Dec-04 00:00N 32°21' W 090°53'0 0.0
2017-Dec-03 23:30N 32°21' W 090°53'0 0.0
2017-Dec-03 23:00N 32°21' W 090°53'0 0.0
2017-Dec-03 22:30N 32°21' W 090°53'0 0.0
2017-Dec-03 22:00N 32°21' W 090°53'0 0.0
2017-Dec-03 21:30N 32°21' W 090°53'0 0.0
2017-Dec-03 21:00N 32°21' W 090°53'0 0.0
2017-Dec-03 20:30N 32°21' W 090°53'0 0.0
2017-Dec-03 20:00N 32°21' W 090°53'0 0.0
2017-Dec-03 19:30N 32°21' W 090°53'0 0.0
2017-Dec-03 19:00N 32°21' W 090°53'0 0.0
2017-Dec-03 18:30N 32°21' W 090°53'0 0.0
2017-Dec-03 18:00N 32°21' W 090°53'2 3.7
2017-Dec-03 17:30N 32°21' W 090°55'5 9.3
2017-Dec-03 17:00N 32°23' W 090°60'611.5
2017-Dec-03 16:30N 32°27' W 091°05'611.7
2017-Dec-03 16:01N 32°33' W 091°06'612.5
2017-Dec-03 15:30N 32°38' W 091°09'711.2
2017-Dec-03 14:52N 32°44' W 091°04'412.5
2017-Dec-03 14:30N 32°45' W 091°09'13 8.9
2017-Dec-03 13:06N 32°57' W 091°05'411.1
2017-Dec-03 12:42N 32°58' W 091°10'711.6
2017-Dec-03 12:08N 33°05' W 091°10'9 9.8
2017-Dec-03 11:12N 33°13' W 091°06'  
Track history (hours):
 
Tides and Currents Weather Stations Pressure Air Temp Water Temp Dewpoint Dewpoint Depression Visibility Wind Speed Wind Dir Waves Ship Positions

America

Last reported at 2017-Dec-13 02:02 UTC. Time now 2017-Dec-16 13:03 UTC.
Position N 32°03' W 091°03'.

Length 80 m; draft 2.4 m.

Type: Passenger vessel. MMSI: 367710540.

Date/timePositionNaut miles runAvg speedWind from/ knotsBaromVisibWave heightAir tempDewpointWater temp
2017-Dec-13 02:02N 32°03' W 091°03'411.3
2017-Dec-13 01:38N 32°07' W 091°06'1 8.8
2017-Dec-13 01:28N 32°08' W 091°06'510.0
2017-Dec-13 01:00N 32°09' W 091°00'612.4
2017-Dec-13 00:31N 32°15' W 090°59'613.0
2017-Dec-13 00:01N 32°20' W 090°54'1 2.6
2017-Dec-12 23:27N 32°21' W 090°53'0 0.0
2017-Dec-12 23:00N 32°21' W 090°53'0 0.0
2017-Dec-12 22:30N 32°21' W 090°53'0 0.0
2017-Dec-12 22:01N 32°21' W 090°53'0 0.0
2017-Dec-12 21:28N 32°21' W 090°53'0 0.0
2017-Dec-12 21:01N 32°21' W 090°53'0 0.0
2017-Dec-12 20:30N 32°21' W 090°53'0 0.0
2017-Dec-12 20:00N 32°21' W 090°53'0 0.0
2017-Dec-12 19:28N 32°21' W 090°53'0 0.0
2017-Dec-12 18:57N 32°21' W 090°53'0 0.0
2017-Dec-12 18:27N 32°21' W 090°53'0 0.0
2017-Dec-12 18:01N 32°21' W 090°53'0 0.0
2017-Dec-12 17:30N 32°21' W 090°53'0 0.0
2017-Dec-12 16:58N 32°21' W 090°53'0 0.0
2017-Dec-12 16:30N 32°21' W 090°53'0 0.0
2017-Dec-12 16:00N 32°21' W 090°53'0 0.0
2017-Dec-12 15:30N 32°21' W 090°53'0 0.0
2017-Dec-12 15:00N 32°21' W 090°53'0 0.0
2017-Dec-12 14:30N 32°21' W 090°53'0 0.0
2017-Dec-12 13:57N 32°21' W 090°53'0 0.0
2017-Dec-12 13:30N 32°21' W 090°53'0 0.0
2017-Dec-12 13:00N 32°21' W 090°53'2 4.7
2017-Dec-12 12:31N 32°19' W 090°54'2 3.9
2017-Dec-12 12:01N 32°18' W 090°56'3 6.4
2017-Dec-12 11:30N 32°15' W 090°58'3 5.7
2017-Dec-12 11:00N 32°13' W 090°59'3 5.5
2017-Dec-12 10:30N 32°10' W 091°00'3 5.2
2017-Dec-12 10:01N 32°07' W 091°01'3 5.6
2017-Dec-12 09:27N 32°08' W 091°05'2 4.6
2017-Dec-12 08:59N 32°06' W 091°06'4 8.1
2017-Dec-12 08:29N 32°02' W 091°04'7 7.2
2017-Dec-12 07:33N 31°59' W 091°10'0 8.0
2017-Dec-12 07:30N 31°58' W 091°11'  
2017-Dec-04 10:24N 32°21' W 090°53'0 0.0
2017-Dec-04 10:00N 32°21' W 090°53'0 0.0
2017-Dec-04 09:30N 32°21' W 090°53'0 0.0
2017-Dec-04 09:00N 32°21' W 090°53'0 0.0
2017-Dec-04 08:30N 32°21' W 090°53'0 0.0
2017-Dec-04 08:00N 32°21' W 090°53'0 0.0
2017-Dec-04 07:30N 32°21' W 090°53'0 0.0
2017-Dec-04 07:00N 32°21' W 090°53'0 0.0
2017-Dec-04 06:30N 32°21' W 090°53'0 0.0
2017-Dec-04 06:00N 32°21' W 090°53'0 0.0
2017-Dec-04 05:30N 32°21' W 090°53'0 0.0
2017-Dec-04 05:00N 32°21' W 090°53'0 0.0
2017-Dec-04 04:30N 32°21' W 090°53'0 0.0
2017-Dec-04 04:00N 32°21' W 090°53'0 0.0
2017-Dec-04 03:30N 32°21' W 090°53'0 0.0
2017-Dec-04 03:00N 32°21' W 090°53'0 0.0
2017-Dec-04 02:30N 32°21' W 090°53'0 0.0
2017-Dec-04 02:00N 32°21' W 090°53'0 0.0
2017-Dec-04 01:30N 32°21' W 090°53'0 0.0
2017-Dec-04 01:00N 32°21' W 090°53'0 0.0
2017-Dec-04 00:30N 32°21' W 090°53'0 0.0
2017-Dec-04 00:00N 32°21' W 090°53'0 0.0
2017-Dec-03 23:30N 32°21' W 090°53'0 0.0
2017-Dec-03 23:00N 32°21' W 090°53'0 0.0
2017-Dec-03 22:30N 32°21' W 090°53'0 0.0
2017-Dec-03 22:00N 32°21' W 090°53'0 0.0
2017-Dec-03 21:30N 32°21' W 090°53'0 0.0
2017-Dec-03 21:00N 32°21' W 090°53'0 0.0
2017-Dec-03 20:30N 32°21' W 090°53'0 0.0
2017-Dec-03 20:00N 32°21' W 090°53'0 0.0
2017-Dec-03 19:30N 32°21' W 090°53'0 0.0
2017-Dec-03 19:00N 32°21' W 090°53'0 0.0
2017-Dec-03 18:30N 32°21' W 090°53'0 0.0
2017-Dec-03 18:00N 32°21' W 090°53'2 3.7
2017-Dec-03 17:30N 32°21' W 090°55'5 9.3
2017-Dec-03 17:00N 32°23' W 090°60'611.5
2017-Dec-03 16:30N 32°27' W 091°05'611.7
2017-Dec-03 16:01N 32°33' W 091°06'612.5
2017-Dec-03 15:30N 32°38' W 091°09'711.2
2017-Dec-03 14:52N 32°44' W 091°04'412.5
2017-Dec-03 14:30N 32°45' W 091°09'13 8.9
2017-Dec-03 13:06N 32°57' W 091°05'411.1
2017-Dec-03 12:42N 32°58' W 091°10'711.6
2017-Dec-03 12:08N 33°05' W 091°10'9 9.8
2017-Dec-03 11:12N 33°13' W 091°06'  

Dump ship's entire track history